createdAt,value
2022-10-05T00:01:57.026Z,378.50
2022-10-05T00:07:04.557Z,158.32
2022-10-05T00:12:21.503Z,382.27
2022-10-05T00:17:29.677Z,326.35
2022-10-05T00:22:34.842Z,273.65
2022-10-05T00:27:39.763Z,337.20
2022-10-05T00:32:43.029Z,141.80
2022-10-05T00:37:46.473Z,161.18
2022-10-05T00:42:54.726Z,192.10
2022-10-05T00:48:07.687Z,479.50
2022-10-05T00:53:22.503Z,386.55
2022-10-05T00:58:32.104Z,294.60
2022-10-05T01:03:51.165Z,497.02
2022-10-05T01:08:58.763Z,20.65
2022-10-05T01:14:06.771Z,574.33
2022-10-05T01:19:15.868Z,539.72
2022-10-05T01:24:35.036Z,807.30
2022-10-05T01:29:42.606Z,477.67
2022-10-05T01:34:48.434Z,226.18
2022-10-05T01:39:57.545Z,28.70
2022-10-05T01:45:05.602Z,35.78
2022-10-05T01:50:17.352Z,74.60
2022-10-05T01:55:23.434Z,129.02
2022-10-05T02:00:28.675Z,243.85
2022-10-05T02:05:37.184Z,261.20
2022-10-05T02:10:43.008Z,149.85
2022-10-05T02:15:50.579Z,380.52
2022-10-05T02:20:54.317Z,193.65
2022-10-05T02:25:57.958Z,409.20
2022-10-05T02:31:07.217Z,380.45
2022-10-05T02:36:16.336Z,278.95
2022-10-05T02:41:26.538Z,144.98
2022-10-05T02:46:34.911Z,274.90
2022-10-05T02:51:42.014Z,296.75
2022-10-05T02:56:49.131Z,296.25
2022-10-05T03:01:56.782Z,373.85
2022-10-05T03:07:06.055Z,726.28
2022-10-05T03:12:17.289Z,131.52
2022-10-05T03:17:25.450Z,49.47
2022-10-05T03:22:35.339Z,74.47
2022-10-05T03:27:41.205Z,100.43
2022-10-05T03:32:54.780Z,316.38
2022-10-05T03:38:05.840Z,279.50
2022-10-05T03:43:20.545Z,443.00
2022-10-05T03:48:29.173Z,420.45
2022-10-05T03:53:41.299Z,347.50
2022-10-05T03:58:47.662Z,522.03
2022-10-05T04:03:53.439Z,396.73
2022-10-05T04:09:00.366Z,287.20
2022-10-05T04:14:07.603Z,394.52
2022-10-05T04:19:16.331Z,128.98
2022-10-05T04:24:26.157Z,251.53
2022-10-05T04:29:32.416Z,89.82
2022-10-05T04:34:47.039Z,334.13
2022-10-05T04:39:54.926Z,213.68
2022-10-05T04:45:09.523Z,309.70
2022-10-05T04:50:25.230Z,233.85
2022-10-05T04:55:48.001Z,157.05
2022-10-05T05:00:56.162Z,39.42
2022-10-05T05:06:16.903Z,263.48
2022-10-05T05:11:28.490Z,106.30
2022-10-05T05:16:35.336Z,150.05
2022-10-05T05:21:47.736Z,96.88
2022-10-05T05:26:59.153Z,67.90
2022-10-05T05:32:11.425Z,47.85
2022-10-05T05:37:19.122Z,49.65
2022-10-05T05:42:30.539Z,64.57
2022-10-05T05:47:37.884Z,63.00
2022-10-05T05:52:46.397Z,65.45
2022-10-05T05:57:51.887Z,78.05
2022-10-05T06:02:57.377Z,47.55
2022-10-05T06:08:07.274Z,91.15
2022-10-05T06:13:17.788Z,44.63
2022-10-05T06:18:21.708Z,53.72
2022-10-05T06:23:31.464Z,57.95
2022-10-05T06:28:34.964Z,67.53
2022-10-05T06:33:47.089Z,46.55
2022-10-05T06:39:17.733Z,49.78
2022-10-05T06:44:23.802Z,58.15
2022-10-05T06:50:00.401Z,59.75
2022-10-05T06:55:24.986Z,67.07
2022-10-05T07:00:30.734Z,58.67
2022-10-05T07:06:08.229Z,62.58
2022-10-05T07:11:22.661Z,41.20
2022-10-05T07:16:32.258Z,44.33
2022-10-05T07:21:39.567Z,42.30
2022-10-05T07:26:47.975Z,37.58
2022-10-05T07:32:01.094Z,30.95
2022-10-05T07:37:23.548Z,29.75
2022-10-05T07:42:48.765Z,33.83
2022-10-05T07:47:56.732Z,29.63
2022-10-05T07:53:04.446Z,27.27
2022-10-05T07:58:13.406Z,25.92
2022-10-05T08:03:22.290Z,27.02
2022-10-05T08:08:28.806Z,25.25
2022-10-05T08:13:36.059Z,15.93
2022-10-05T08:18:45.431Z,17.67
2022-10-05T08:23:53.265Z,12.82
2022-10-05T08:29:08.201Z,10.07
2022-10-05T08:34:23.379Z,11.15
2022-10-05T08:39:31.451Z,6.43
2022-10-05T08:45:05.072Z,7.85
2022-10-05T08:50:38.141Z,6.45
2022-10-05T08:55:45.424Z,9.50
2022-10-05T09:00:56.321Z,6.57
2022-10-05T09:06:22.216Z,7.75
2022-10-05T09:11:27.122Z,6.82
2022-10-05T09:16:51.358Z,5.07
2022-10-05T09:21:59.013Z,7.50
2022-10-05T09:27:05.420Z,7.80
2022-10-05T09:32:23.726Z,8.05
2022-10-05T09:37:55.462Z,9.38
2022-10-05T09:43:27.002Z,9.10
2022-10-05T09:48:50.411Z,6.05
2022-10-05T09:54:43.704Z,7.18
2022-10-05T10:00:09.176Z,6.32
2022-10-05T10:05:25.961Z,6.25
2022-10-05T10:11:08.116Z,7.95
2022-10-05T10:16:18.984Z,5.78
2022-10-05T10:21:46.968Z,6.20
2022-10-05T10:27:05.147Z,6.35
2022-10-05T10:32:21.292Z,6.65
2022-10-05T10:37:39.178Z,10.13
2022-10-05T10:42:44.062Z,10.02
2022-10-05T10:48:00.364Z,10.20
2022-10-05T10:53:14.370Z,9.35
2022-10-05T10:58:50.652Z,9.57
2022-10-05T11:04:13.630Z,13.18
2022-10-05T11:09:41.662Z,12.57
2022-10-05T11:14:54.370Z,11.93
2022-10-05T11:20:05.557Z,12.52
2022-10-05T11:25:44.559Z,12.38
2022-10-05T11:31:18.864Z,9.52
2022-10-05T11:36:48.377Z,10.05
2022-10-05T11:42:20.016Z,11.80
2022-10-05T11:47:24.630Z,12.90
2022-10-05T11:52:31.786Z,11.32
2022-10-05T11:57:38.989Z,10.50
2022-10-05T12:03:17.245Z,10.75
2022-10-05T12:08:26.433Z,8.85
2022-10-05T12:13:35.876Z,9.32
2022-10-05T12:18:56.383Z,6.22
2022-10-05T12:24:01.860Z,8.05
2022-10-05T12:29:10.204Z,6.43
2022-10-05T12:34:22.006Z,7.55
2022-10-05T12:39:29.278Z,9.38
2022-10-05T12:44:52.385Z,6.80
2022-10-05T12:50:08.201Z,7.10
2022-10-05T12:55:14.010Z,7.35
2022-10-05T13:00:22.921Z,6.10
2022-10-05T13:05:29.772Z,5.40
2022-10-05T13:10:36.322Z,5.43
2022-10-05T13:15:43.621Z,5.40
2022-10-05T13:20:53.694Z,5.87
2022-10-05T13:25:59.945Z,3.70
2022-10-05T13:31:07.803Z,5.00
2022-10-05T13:36:15.847Z,4.22
2022-10-05T13:41:23.670Z,5.68
2022-10-05T13:46:32.196Z,5.73
2022-10-05T13:51:40.126Z,6.10
2022-10-05T13:56:48.609Z,3.47
2022-10-05T14:01:57.919Z,5.10
2022-10-05T14:07:04.845Z,2.80
2022-10-05T14:12:15.630Z,6.30
2022-10-05T14:17:37.945Z,4.38
2022-10-05T14:22:42.950Z,3.47
2022-10-05T14:28:10.069Z,2.65
2022-10-05T14:33:18.125Z,3.78
2022-10-05T14:38:22.758Z,5.53
2022-10-05T14:43:26.512Z,5.15
2022-10-05T14:48:44.927Z,2.78
2022-10-05T14:59:17.593Z,2.00
2022-10-05T15:04:35.065Z,2.50
2022-10-05T15:09:45.601Z,4.43
2022-10-05T15:14:49.008Z,5.43
2022-10-05T15:19:56.981Z,2.20
2022-10-05T15:25:04.946Z,3.35
2022-10-05T15:30:11.227Z,3.10
2022-10-05T15:35:36.125Z,3.92
2022-10-05T15:40:42.821Z,2.42
2022-10-05T15:45:54.178Z,1.80
2022-10-05T15:51:02.390Z,5.60
2022-10-05T15:56:08.504Z,2.80
2022-10-05T16:01:12.830Z,2.63
2022-10-05T16:06:42.727Z,2.20
2022-10-05T16:12:01.976Z,4.10
2022-10-05T16:17:18.893Z,2.20
2022-10-05T16:22:26.826Z,3.20
2022-10-05T16:27:34.708Z,4.72
2022-10-05T16:32:39.253Z,5.43
2022-10-05T16:37:47.709Z,2.67
2022-10-05T16:48:05.281Z,3.45
2022-10-05T16:53:15.901Z,3.58
2022-10-05T16:58:25.132Z,5.10
2022-10-05T17:03:35.457Z,4.53
2022-10-05T17:08:51.121Z,4.05
2022-10-05T17:14:04.927Z,3.05
2022-10-05T17:19:33.643Z,4.20
2022-10-05T17:24:47.774Z,3.90
2022-10-05T17:29:52.595Z,5.80
2022-10-05T17:35:18.871Z,5.57
2022-10-05T17:40:59.968Z,4.63
2022-10-05T17:46:05.773Z,6.50
2022-10-05T17:52:05.927Z,6.72
2022-10-05T17:57:21.153Z,3.58
2022-10-05T18:02:27.012Z,4.70
2022-10-05T18:07:33.652Z,8.52
2022-10-05T18:12:51.624Z,6.32
2022-10-05T18:17:57.356Z,8.27
2022-10-05T18:23:29.673Z,5.78
2022-10-05T18:28:40.697Z,6.97
2022-10-05T18:33:59.658Z,9.25
2022-10-05T18:39:04.899Z,6.20
2022-10-05T18:44:27.298Z,7.63
2022-10-05T18:49:54.450Z,6.30
2022-10-05T18:55:02.377Z,6.03
2022-10-05T19:00:09.222Z,6.88
2022-10-05T19:05:42.958Z,7.15
2022-10-05T19:15:55.277Z,7.75
2022-10-05T19:21:02.379Z,7.60
2022-10-05T19:26:12.001Z,8.20
2022-10-05T19:31:23.388Z,7.38
2022-10-05T19:36:34.661Z,6.45
2022-10-05T19:41:52.288Z,7.93
2022-10-05T19:47:02.884Z,5.00
2022-10-05T19:52:12.706Z,7.30
2022-10-05T19:57:18.342Z,6.85
2022-10-05T20:02:23.989Z,6.38
2022-10-05T20:07:28.080Z,4.05
2022-10-05T20:12:50.664Z,8.18
2022-10-05T20:18:15.614Z,6.70
2022-10-05T20:23:25.352Z,7.18
2022-10-05T20:28:31.984Z,5.80
2022-10-05T20:33:37.259Z,4.47
2022-10-05T20:38:41.310Z,7.85
2022-10-05T20:43:44.577Z,8.02
2022-10-05T20:49:00.407Z,6.47
2022-10-05T20:54:03.845Z,6.80
2022-10-05T20:59:07.038Z,5.90
2022-10-05T21:04:14.149Z,5.65
2022-10-05T21:09:21.698Z,6.18
2022-10-05T21:14:28.298Z,7.32
2022-10-05T21:19:38.310Z,5.88
2022-10-05T21:24:41.968Z,10.15
2022-10-05T21:29:45.549Z,6.72
2022-10-05T21:34:50.564Z,12.18
2022-10-05T21:39:54.745Z,10.10
2022-10-05T21:44:58.218Z,8.13
2022-10-05T21:50:03.730Z,9.70
2022-10-05T21:55:10.571Z,5.75
2022-10-05T22:00:16.389Z,9.52
2022-10-05T22:05:21.279Z,9.73
2022-10-05T22:10:25.034Z,8.52
2022-10-05T22:15:31.413Z,9.23
2022-10-05T22:20:40.693Z,7.53
2022-10-05T22:30:46.972Z,7.07
2022-10-05T22:35:51.788Z,9.95
2022-10-05T22:40:58.079Z,9.55
2022-10-05T22:46:03.098Z,10.10
2022-10-05T22:51:09.623Z,9.88
2022-10-05T22:56:13.994Z,6.82
2022-10-05T23:01:21.559Z,8.93
2022-10-05T23:06:26.682Z,8.65
2022-10-05T23:11:30.176Z,8.77
2022-10-05T23:16:34.318Z,11.68
2022-10-05T23:21:39.839Z,8.98
2022-10-05T23:26:43.596Z,8.07
2022-10-05T23:31:46.713Z,10.38
2022-10-05T23:36:51.207Z,8.40
2022-10-05T23:41:56.175Z,10.75
2022-10-05T23:47:28.069Z,7.40
2022-10-05T23:52:35.705Z,8.70
2022-10-05T23:57:40.600Z,6.60
